createdAt,value
2023-12-09T00:00:18.145Z,85.27
2023-12-09T00:02:44.411Z,84.87
2023-12-09T00:05:10.588Z,85.04
2023-12-09T00:07:36.741Z,84.84
2023-12-09T00:10:02.957Z,84.49
2023-12-09T00:12:29.438Z,84.55
2023-12-09T00:14:55.893Z,84.41
2023-12-09T00:17:22.062Z,84.29
2023-12-09T00:19:48.317Z,84.31
2023-12-09T00:22:14.551Z,84.46
2023-12-09T00:24:40.733Z,84.82
2023-12-09T00:27:06.941Z,84.80
2023-12-09T00:29:33.131Z,84.77
2023-12-09T00:31:59.280Z,84.79
2023-12-09T00:34:25.461Z,85.11
2023-12-09T00:36:51.670Z,84.95
2023-12-09T00:39:17.900Z,85.07
2023-12-09T00:41:44.096Z,85.33
2023-12-09T00:44:10.268Z,85.32
2023-12-09T00:46:36.443Z,84.83
2023-12-09T00:49:02.703Z,85.05
2023-12-09T00:51:29.025Z,84.83
2023-12-09T00:53:55.210Z,85.41
2023-12-09T00:56:33.442Z,84.84
2023-12-09T00:59:01.510Z,84.76
2023-12-09T01:01:27.709Z,85.15
2023-12-09T01:03:54.048Z,85.41
2023-12-09T01:06:20.301Z,86.03
2023-12-09T01:08:46.456Z,85.85
2023-12-09T01:11:12.626Z,86.29
2023-12-09T01:13:38.788Z,86.86
2023-12-09T01:16:04.958Z,87.81
2023-12-09T01:18:31.260Z,87.89
2023-12-09T01:20:57.491Z,88.08
2023-12-09T01:23:23.671Z,88.67
2023-12-09T01:25:49.816Z,88.18
2023-12-09T01:28:15.972Z,88.43
2023-12-09T01:30:42.214Z,88.97
2023-12-09T01:33:08.486Z,89.38
2023-12-09T01:35:34.697Z,89.52
2023-12-09T01:38:00.861Z,88.66
2023-12-09T01:40:27.007Z,89.03
2023-12-09T01:42:53.169Z,88.73
2023-12-09T01:45:19.354Z,88.46
2023-12-09T01:47:45.568Z,89.21
2023-12-09T01:50:11.939Z,88.40
2023-12-09T01:52:38.264Z,88.83
2023-12-09T01:55:04.441Z,88.27
2023-12-09T01:57:30.734Z,88.33
2023-12-09T01:59:57.031Z,87.71
2023-12-09T02:02:23.358Z,88.23
2023-12-09T02:04:49.571Z,88.48
2023-12-09T02:07:15.761Z,88.16
2023-12-09T02:09:41.934Z,87.91
2023-12-09T02:12:08.136Z,87.94
2023-12-09T02:14:34.318Z,88.08
2023-12-09T02:17:00.516Z,88.11
2023-12-09T02:19:26.717Z,87.75
2023-12-09T02:21:52.875Z,88.32
2023-12-09T02:24:19.066Z,87.67
2023-12-09T02:26:45.293Z,87.53
2023-12-09T02:29:11.444Z,87.94
2023-12-09T02:31:37.635Z,87.85
2023-12-09T02:34:04.003Z,88.06
2023-12-09T02:36:30.273Z,87.41
2023-12-09T02:38:56.511Z,87.40
2023-12-09T02:41:22.692Z,87.84
2023-12-09T02:43:48.879Z,87.29
2023-12-09T02:46:15.049Z,87.22
2023-12-09T02:48:41.465Z,86.83
2023-12-09T02:51:07.760Z,87.18
2023-12-09T02:53:34.031Z,87.20
2023-12-09T02:56:00.203Z,87.42
2023-12-09T02:58:26.413Z,87.36
2023-12-09T03:00:52.612Z,87.90
2023-12-09T03:03:18.927Z,88.00
2023-12-09T03:05:45.178Z,87.53
2023-12-09T03:08:11.378Z,87.58
2023-12-09T03:10:37.587Z,87.71
2023-12-09T03:13:03.746Z,86.72
2023-12-09T03:15:29.920Z,86.50
2023-12-09T03:17:56.186Z,86.47
2023-12-09T03:20:22.426Z,86.30
2023-12-09T03:22:48.651Z,86.36
2023-12-09T03:25:14.853Z,86.01
2023-12-09T03:27:41.020Z,85.98
2023-12-09T03:30:07.233Z,86.63
2023-12-09T03:32:33.447Z,85.92
2023-12-09T03:34:59.647Z,86.04
2023-12-09T03:37:25.773Z,86.26
2023-12-09T03:39:51.937Z,86.19
2023-12-09T03:42:18.166Z,86.16
2023-12-09T03:44:44.340Z,86.02
2023-12-09T03:47:18.361Z,86.60
2023-12-09T03:49:48.410Z,86.42
2023-12-09T03:52:17.257Z,86.92
2023-12-09T03:54:44.908Z,87.55
2023-12-09T03:57:11.146Z,87.25
2023-12-09T03:59:37.354Z,87.45
2023-12-09T04:02:03.524Z,87.36
2023-12-09T04:04:29.703Z,87.32
2023-12-09T04:06:55.914Z,86.87
2023-12-09T04:09:22.100Z,87.04
2023-12-09T04:11:48.275Z,86.76
2023-12-09T04:14:14.438Z,86.93
2023-12-09T04:16:40.654Z,86.63
2023-12-09T04:19:09.132Z,86.33
2023-12-09T04:21:36.513Z,85.91
2023-12-09T04:24:02.690Z,85.76
2023-12-09T04:26:28.887Z,85.37
2023-12-09T04:28:55.031Z,85.42
2023-12-09T04:31:21.177Z,85.60
2023-12-09T04:33:47.388Z,85.82
2023-12-09T04:36:13.619Z,86.12
2023-12-09T04:38:39.770Z,85.91
2023-12-09T04:41:05.931Z,85.42
2023-12-09T04:43:32.126Z,86.08
2023-12-09T04:45:58.305Z,85.91
2023-12-09T04:48:24.646Z,86.14
2023-12-09T04:50:50.891Z,85.71
2023-12-09T04:53:17.038Z,86.32
2023-12-09T04:55:43.220Z,85.90
2023-12-09T04:58:09.371Z,85.53
2023-12-09T05:00:35.560Z,85.63
2023-12-09T05:03:01.795Z,86.11
2023-12-09T05:05:28.090Z,85.83
2023-12-09T05:07:54.301Z,85.76
2023-12-09T05:10:20.486Z,86.30
2023-12-09T05:12:46.662Z,86.43
2023-12-09T05:15:12.885Z,86.16
2023-12-09T05:17:39.240Z,86.57
2023-12-09T05:20:05.492Z,86.96
2023-12-09T05:22:31.671Z,86.99
2023-12-09T05:24:57.805Z,87.75
2023-12-09T05:27:24.018Z,87.64
2023-12-09T05:29:50.227Z,87.41
2023-12-09T05:32:16.377Z,86.83
2023-12-09T05:34:42.619Z,86.94
2023-12-09T05:37:08.872Z,86.45
2023-12-09T05:39:35.100Z,86.83
2023-12-09T05:42:01.362Z,86.75
2023-12-09T05:44:27.594Z,86.51
2023-12-09T05:46:53.754Z,86.43
2023-12-09T05:49:19.976Z,86.74
2023-12-09T05:51:46.184Z,86.19
2023-12-09T05:54:12.403Z,86.22
2023-12-09T05:56:38.563Z,86.22
2023-12-09T05:59:04.742Z,85.97
2023-12-09T06:01:30.986Z,86.30
2023-12-09T06:03:57.172Z,86.40
2023-12-09T06:06:23.432Z,86.17
2023-12-09T06:08:49.646Z,86.34
2023-12-09T06:11:15.791Z,86.09
2023-12-09T06:13:41.938Z,86.29
2023-12-09T06:16:08.077Z,86.03
2023-12-09T06:18:34.272Z,86.26
2023-12-09T06:21:00.510Z,86.34
2023-12-09T06:23:26.756Z,86.26
2023-12-09T06:25:52.898Z,85.90
2023-12-09T06:28:19.058Z,86.12
2023-12-09T06:30:45.305Z,86.05
2023-12-09T06:33:11.806Z,86.23
2023-12-09T06:35:38.150Z,86.39
2023-12-09T06:38:04.324Z,86.25
2023-12-09T06:40:30.511Z,85.76
2023-12-09T06:42:56.704Z,85.49
2023-12-09T06:45:22.931Z,86.00
2023-12-09T06:47:49.273Z,85.76
2023-12-09T06:50:15.648Z,85.88
2023-12-09T06:52:41.845Z,85.40
2023-12-09T06:55:07.991Z,86.06
2023-12-09T06:57:34.210Z,85.75
2023-12-09T07:00:00.495Z,85.32
2023-12-09T07:02:33.908Z,85.04
2023-12-09T07:05:06.289Z,85.09
2023-12-09T07:07:32.470Z,85.21
2023-12-09T07:09:58.633Z,86.02
2023-12-09T07:12:25.045Z,85.53
2023-12-09T07:14:51.366Z,85.22
2023-12-09T07:17:17.614Z,84.82
2023-12-09T07:19:43.918Z,85.43
2023-12-09T07:22:10.147Z,84.74
2023-12-09T07:24:36.330Z,84.88
2023-12-09T07:27:02.575Z,85.23
2023-12-09T07:29:30.912Z,84.81
2023-12-09T07:31:58.201Z,85.05
2023-12-09T07:34:24.504Z,85.33
2023-12-09T07:36:50.743Z,85.38
2023-12-09T07:39:16.958Z,85.41
2023-12-09T07:41:43.117Z,85.09
2023-12-09T07:44:09.311Z,84.96
2023-12-09T07:46:35.552Z,84.63
2023-12-09T07:49:01.913Z,84.54
2023-12-09T07:51:28.193Z,84.40
2023-12-09T07:53:54.354Z,84.95
2023-12-09T07:56:20.574Z,84.43
2023-12-09T07:58:46.799Z,84.28
2023-12-09T08:01:13.125Z,84.16
2023-12-09T08:03:39.477Z,84.15
2023-12-09T08:06:05.824Z,84.11
2023-12-09T08:08:32.007Z,83.49
2023-12-09T08:10:58.183Z,83.37
2023-12-09T08:13:24.361Z,83.20
2023-12-09T08:15:50.578Z,83.87
2023-12-09T08:18:16.872Z,83.50
2023-12-09T08:20:43.116Z,83.09
2023-12-09T08:23:09.292Z,82.74
2023-12-09T08:25:35.454Z,82.69
2023-12-09T08:28:01.623Z,81.86
2023-12-09T08:30:27.823Z,81.97
2023-12-09T08:32:54.094Z,81.50
2023-12-09T08:35:20.406Z,81.05
2023-12-09T08:37:46.579Z,80.91
2023-12-09T08:40:12.988Z,80.34
2023-12-09T08:42:39.371Z,80.75
2023-12-09T08:45:05.621Z,80.14
2023-12-09T08:47:31.852Z,79.57
2023-12-09T08:49:58.042Z,79.36
2023-12-09T08:52:24.208Z,79.89
2023-12-09T08:54:50.354Z,78.78
2023-12-09T08:57:16.741Z,78.84
2023-12-09T08:59:42.945Z,78.60
2023-12-09T09:02:09.130Z,78.72
2023-12-09T09:04:35.453Z,77.62
2023-12-09T09:07:01.679Z,77.49
2023-12-09T09:09:27.857Z,77.40
2023-12-09T09:11:54.039Z,76.31
2023-12-09T09:14:20.214Z,75.75
2023-12-09T09:16:46.348Z,75.29
2023-12-09T09:19:12.617Z,74.73
2023-12-09T09:21:38.845Z,75.07
2023-12-09T09:24:05.132Z,75.04
2023-12-09T09:26:31.305Z,74.91
2023-12-09T09:28:57.563Z,74.62
2023-12-09T09:31:23.767Z,74.42
2023-12-09T09:33:50.114Z,73.56
2023-12-09T09:36:16.449Z,73.36
2023-12-09T09:38:42.669Z,72.78
2023-12-09T09:41:08.813Z,72.38
2023-12-09T09:43:34.990Z,72.94
2023-12-09T09:46:01.212Z,71.93
2023-12-09T09:48:27.643Z,72.73
2023-12-09T09:50:53.923Z,72.36
2023-12-09T09:53:20.109Z,71.69
2023-12-09T09:55:46.258Z,70.08
2023-12-09T09:58:12.409Z,70.06
2023-12-09T10:00:38.649Z,69.77
2023-12-09T10:03:05.013Z,70.48
2023-12-09T10:05:31.183Z,69.52
2023-12-09T10:07:57.332Z,69.70
2023-12-09T10:10:23.512Z,69.14
2023-12-09T10:12:49.693Z,69.15
2023-12-09T10:15:15.961Z,68.05
2023-12-09T10:17:42.288Z,68.21
2023-12-09T10:20:08.626Z,68.83
2023-12-09T10:22:34.780Z,67.63
2023-12-09T10:25:01.018Z,65.27
2023-12-09T10:27:27.239Z,66.37
2023-12-09T10:29:53.452Z,66.38
2023-12-09T10:32:19.614Z,66.79
2023-12-09T10:34:45.851Z,66.23
2023-12-09T10:37:12.099Z,66.69
2023-12-09T10:39:38.307Z,66.33
2023-12-09T10:42:04.496Z,66.69
2023-12-09T10:44:30.667Z,67.49
2023-12-09T10:46:56.837Z,67.93
2023-12-09T10:49:23.084Z,68.34
2023-12-09T10:51:49.370Z,68.02
2023-12-09T10:54:15.988Z,68.23
2023-12-09T10:56:42.177Z,68.70
2023-12-09T10:59:08.832Z,69.30
2023-12-09T11:01:35.048Z,69.17
2023-12-09T11:04:01.340Z,68.21
2023-12-09T11:06:27.612Z,68.64
2023-12-09T11:08:53.834Z,68.55
2023-12-09T11:11:20.053Z,68.97
2023-12-09T11:13:46.284Z,68.31
2023-12-09T11:16:12.444Z,68.96
2023-12-09T11:18:38.760Z,69.01
2023-12-09T11:21:05.074Z,68.49
2023-12-09T11:23:31.260Z,67.92
2023-12-09T11:25:57.434Z,67.78
2023-12-09T11:28:23.633Z,67.02
2023-12-09T11:30:49.983Z,67.73
2023-12-09T11:33:16.553Z,66.94
2023-12-09T11:35:42.818Z,67.02
2023-12-09T11:38:08.963Z,66.56
2023-12-09T11:40:35.107Z,66.80
2023-12-09T11:43:01.309Z,66.09
2023-12-09T11:45:27.567Z,66.78
2023-12-09T11:47:55.882Z,66.76
2023-12-09T11:50:23.315Z,66.52
2023-12-09T11:52:49.475Z,66.90
2023-12-09T11:55:15.647Z,66.79
2023-12-09T11:57:41.843Z,67.20
2023-12-09T12:00:08.067Z,67.70
2023-12-09T12:02:34.257Z,66.89
2023-12-09T12:05:00.424Z,67.01
2023-12-09T12:07:26.603Z,67.12
2023-12-09T12:09:52.774Z,67.41
2023-12-09T12:12:19.004Z,66.84
2023-12-09T12:14:45.202Z,67.25
2023-12-09T12:17:13.544Z,66.38
2023-12-09T12:19:40.402Z,66.87
2023-12-09T12:22:06.780Z,66.53
2023-12-09T12:24:32.973Z,66.58
2023-12-09T12:26:59.195Z,67.05
2023-12-09T12:29:25.350Z,67.58
2023-12-09T12:31:51.514Z,67.54
2023-12-09T12:34:17.800Z,67.44
2023-12-09T12:36:44.067Z,67.91
2023-12-09T12:39:10.291Z,67.83
2023-12-09T12:41:36.475Z,68.19
2023-12-09T12:44:02.634Z,68.48
2023-12-09T12:46:28.782Z,68.38
2023-12-09T12:48:55.093Z,69.11
2023-12-09T12:51:22.018Z,68.97
2023-12-09T12:53:48.869Z,69.62
2023-12-09T12:56:15.052Z,68.83
2023-12-09T12:58:41.199Z,69.38
2023-12-09T13:01:07.410Z,69.39
2023-12-09T13:03:33.678Z,69.97
2023-12-09T13:05:59.930Z,70.48
2023-12-09T13:08:26.184Z,69.11
2023-12-09T13:10:52.726Z,69.48
2023-12-09T13:13:18.881Z,69.77
2023-12-09T13:15:45.132Z,69.44
2023-12-09T13:18:11.448Z,69.80
2023-12-09T13:20:37.688Z,70.23
2023-12-09T13:23:03.864Z,68.97
2023-12-09T13:25:30.069Z,68.67
2023-12-09T13:27:56.228Z,69.17
2023-12-09T13:30:22.412Z,69.35
2023-12-09T13:32:48.701Z,68.57
2023-12-09T13:35:14.937Z,68.29
2023-12-09T13:37:41.241Z,68.34
2023-12-09T13:40:07.472Z,68.13
2023-12-09T13:42:33.829Z,68.75
2023-12-09T13:45:00.333Z,68.69
2023-12-09T13:47:26.614Z,68.44
2023-12-09T13:49:52.892Z,68.33
2023-12-09T13:52:19.258Z,68.18
2023-12-09T13:54:45.479Z,68.61
2023-12-09T13:57:11.944Z,68.59
2023-12-09T13:59:38.171Z,68.66
2023-12-09T14:02:04.346Z,68.70
2023-12-09T14:04:30.608Z,68.27
2023-12-09T14:06:56.855Z,69.08
2023-12-09T14:09:23.123Z,68.14
2023-12-09T14:11:49.351Z,68.25
2023-12-09T14:14:15.526Z,68.11
2023-12-09T14:16:41.684Z,68.22
2023-12-09T14:19:07.909Z,68.46
2023-12-09T14:21:34.102Z,68.65
2023-12-09T14:24:00.427Z,69.34
2023-12-09T14:26:26.607Z,69.59
2023-12-09T14:28:52.811Z,68.48
2023-12-09T14:31:18.965Z,68.49
2023-12-09T14:33:45.419Z,69.23
2023-12-09T14:36:11.741Z,70.63
2023-12-09T14:38:37.934Z,71.84
2023-12-09T14:41:04.090Z,72.59
2023-12-09T14:43:30.257Z,73.66
2023-12-09T14:45:56.429Z,75.02
2023-12-09T14:48:22.822Z,75.36
2023-12-09T14:50:49.093Z,76.98
2023-12-09T14:53:15.301Z,77.68
2023-12-09T14:55:41.459Z,78.25
2023-12-09T14:58:07.654Z,78.75
2023-12-09T15:00:34.080Z,79.04
2023-12-09T15:03:00.311Z,80.13
2023-12-09T15:05:26.486Z,80.61
2023-12-09T15:07:52.669Z,81.38
2023-12-09T15:10:18.912Z,81.94
2023-12-09T15:12:45.111Z,81.93
2023-12-09T15:15:11.397Z,82.38
2023-12-09T15:17:38.797Z,83.04
2023-12-09T15:20:05.273Z,83.19
2023-12-09T15:22:31.503Z,83.49
2023-12-09T15:24:57.653Z,83.48
2023-12-09T15:27:23.824Z,83.34
2023-12-09T15:29:49.978Z,83.98
2023-12-09T15:32:16.125Z,84.62
2023-12-09T15:34:42.397Z,83.79
2023-12-09T15:37:08.601Z,84.08
2023-12-09T15:39:34.870Z,83.83
2023-12-09T15:42:01.128Z,83.71
2023-12-09T15:44:27.700Z,84.39
2023-12-09T15:46:53.830Z,84.77
2023-12-09T15:49:20.178Z,84.04
2023-12-09T15:51:46.443Z,84.84
2023-12-09T15:54:12.662Z,84.86
2023-12-09T15:56:38.828Z,83.86
2023-12-09T15:59:05.004Z,84.82
2023-12-09T16:01:31.240Z,84.08
2023-12-09T16:03:57.462Z,83.92
2023-12-09T16:06:23.656Z,84.29
2023-12-09T16:08:49.839Z,84.86
2023-12-09T16:11:16.006Z,85.16
2023-12-09T16:13:42.150Z,85.16
2023-12-09T16:16:08.300Z,83.93
2023-12-09T16:18:34.555Z,84.17
2023-12-09T16:21:03.213Z,83.77
2023-12-09T16:23:29.588Z,83.25
2023-12-09T16:25:55.786Z,83.83
2023-12-09T16:28:21.983Z,84.34
2023-12-09T16:30:48.524Z,82.93
2023-12-09T16:33:14.797Z,82.83
2023-12-09T16:35:41.039Z,82.83
2023-12-09T16:38:10.115Z,83.13
2023-12-09T16:40:37.089Z,82.97
2023-12-09T16:43:03.570Z,83.02
2023-12-09T16:45:32.783Z,83.00
2023-12-09T16:48:02.699Z,83.56
2023-12-09T16:50:29.751Z,83.86
2023-12-09T16:52:56.032Z,83.38
2023-12-09T16:55:22.370Z,83.99
2023-12-09T16:57:48.805Z,84.52
2023-12-09T17:00:15.221Z,83.69
2023-12-09T17:02:41.867Z,83.29
2023-12-09T17:05:08.248Z,84.21
2023-12-09T17:07:34.679Z,84.32
2023-12-09T17:10:00.889Z,83.77
2023-12-09T17:12:27.361Z,84.06
2023-12-09T17:14:53.649Z,83.90
2023-12-09T17:17:19.797Z,84.06
2023-12-09T17:19:45.999Z,84.27
2023-12-09T17:22:12.218Z,84.13
2023-12-09T17:24:39.517Z,84.08
2023-12-09T17:27:05.749Z,83.39
2023-12-09T17:29:31.898Z,83.42
2023-12-09T17:31:58.219Z,84.65
2023-12-09T17:34:24.482Z,84.46
2023-12-09T17:36:52.984Z,85.06
2023-12-09T17:39:19.169Z,84.60
2023-12-09T17:41:45.315Z,83.22
2023-12-09T17:44:11.493Z,83.74
2023-12-09T17:46:37.656Z,83.98
2023-12-09T17:49:03.991Z,83.87
2023-12-09T17:51:30.407Z,84.30
2023-12-09T17:53:56.594Z,84.85
2023-12-09T17:56:22.768Z,85.70
2023-12-09T17:58:49.025Z,85.57
2023-12-09T18:01:15.268Z,86.34
2023-12-09T18:03:41.535Z,87.41
2023-12-09T18:06:07.847Z,87.86
2023-12-09T18:08:34.038Z,89.33
2023-12-09T18:11:00.254Z,88.48
2023-12-09T18:13:26.463Z,89.08
2023-12-09T18:15:52.662Z,88.95
2023-12-09T18:18:19.023Z,88.38
2023-12-09T18:20:45.248Z,88.74
2023-12-09T18:23:11.558Z,89.49
2023-12-09T18:25:37.715Z,89.26
2023-12-09T18:28:03.983Z,88.98
2023-12-09T18:30:30.186Z,88.09
2023-12-09T18:32:56.420Z,89.04
2023-12-09T18:35:22.597Z,88.53
2023-12-09T18:37:48.756Z,89.03
2023-12-09T18:40:14.898Z,87.65
2023-12-09T18:42:41.139Z,87.64
2023-12-09T18:45:07.457Z,88.20
2023-12-09T18:47:33.655Z,87.92
2023-12-09T18:49:59.874Z,88.03
2023-12-09T18:52:26.265Z,88.39
2023-12-09T18:54:52.654Z,88.46
2023-12-09T18:57:18.837Z,87.43
2023-12-09T18:59:45.058Z,87.92
2023-12-09T19:02:14.917Z,88.10
2023-12-09T19:04:43.005Z,88.72
2023-12-09T19:07:09.493Z,88.48
2023-12-09T19:09:35.716Z,88.69
2023-12-09T19:12:01.900Z,89.28
2023-12-09T19:14:28.055Z,89.29
2023-12-09T19:16:54.217Z,89.45
2023-12-09T19:19:23.411Z,89.29
2023-12-09T19:21:49.849Z,90.24
2023-12-09T19:24:16.063Z,90.13
2023-12-09T19:26:42.226Z,89.23
2023-12-09T19:29:08.381Z,90.03
2023-12-09T19:31:34.568Z,89.90
2023-12-09T19:34:00.837Z,89.94
2023-12-09T19:36:27.091Z,89.39
2023-12-09T19:38:53.268Z,89.60
2023-12-09T19:41:19.429Z,89.37
2023-12-09T19:43:45.573Z,89.23
2023-12-09T19:46:11.781Z,88.79
2023-12-09T19:48:38.042Z,88.95
2023-12-09T19:51:04.281Z,89.07
2023-12-09T19:53:30.437Z,89.63
2023-12-09T19:55:56.616Z,90.17
2023-12-09T19:58:22.815Z,90.92
2023-12-09T20:00:49.066Z,90.38
2023-12-09T20:03:15.355Z,90.22
2023-12-09T20:05:41.571Z,90.56
2023-12-09T20:08:07.726Z,90.81
2023-12-09T20:10:33.896Z,90.89
2023-12-09T20:13:00.059Z,90.81
2023-12-09T20:15:26.261Z,90.44
2023-12-09T20:17:52.479Z,90.50
2023-12-09T20:20:18.673Z,90.50
2023-12-09T20:22:44.816Z,89.84
2023-12-09T20:25:10.997Z,89.74
2023-12-09T20:27:37.249Z,90.18
2023-12-09T20:30:03.434Z,91.22
2023-12-09T20:32:29.914Z,90.96
2023-12-09T20:34:56.257Z,91.49
2023-12-09T20:37:22.424Z,92.08
2023-12-09T20:39:48.748Z,91.92
2023-12-09T20:42:15.003Z,92.08
2023-12-09T20:44:41.178Z,92.34
2023-12-09T20:47:07.442Z,92.21
2023-12-09T20:49:33.688Z,93.52
2023-12-09T20:51:59.873Z,93.15
2023-12-09T20:54:26.062Z,92.65
2023-12-09T20:56:52.346Z,93.06
2023-12-09T20:59:18.503Z,92.53
2023-12-09T21:01:44.711Z,94.07
2023-12-09T21:04:10.922Z,93.59
2023-12-09T21:06:37.165Z,94.06
2023-12-09T21:09:03.322Z,93.89
2023-12-09T21:11:31.354Z,92.81
2023-12-09T21:13:58.746Z,92.33
2023-12-09T21:16:24.951Z,92.85
2023-12-09T21:18:51.207Z,91.86
2023-12-09T21:21:17.514Z,91.73
2023-12-09T21:23:43.707Z,91.97
2023-12-09T21:26:09.881Z,91.25
2023-12-09T21:28:36.105Z,91.63
2023-12-09T21:31:02.266Z,90.46
2023-12-09T21:33:28.649Z,90.74
2023-12-09T21:35:54.962Z,90.69
2023-12-09T21:38:21.116Z,90.23
2023-12-09T21:40:47.270Z,90.00
2023-12-09T21:43:13.441Z,90.00
2023-12-09T21:45:39.634Z,89.97
2023-12-09T21:48:06.186Z,89.61
2023-12-09T21:50:32.446Z,89.17
2023-12-09T21:52:58.631Z,89.11
2023-12-09T21:55:24.801Z,88.47
2023-12-09T21:57:51.032Z,87.64
2023-12-09T22:00:17.289Z,87.33
2023-12-09T22:02:43.532Z,86.04
2023-12-09T22:05:09.760Z,85.47
2023-12-09T22:07:36.010Z,85.68
2023-12-09T22:10:02.154Z,84.38
2023-12-09T22:12:28.514Z,84.06
2023-12-09T22:14:54.823Z,82.43
2023-12-09T22:17:21.008Z,82.02
2023-12-09T22:19:47.185Z,81.75
2023-12-09T22:22:13.357Z,80.38
2023-12-09T22:24:39.606Z,80.59
2023-12-09T22:27:05.921Z,79.90
2023-12-09T22:29:32.105Z,78.98
2023-12-09T22:31:58.266Z,77.65
2023-12-09T22:34:24.483Z,77.56
2023-12-09T22:36:50.763Z,77.81
2023-12-09T22:39:17.039Z,78.31
2023-12-09T22:41:43.263Z,78.51
2023-12-09T22:44:09.421Z,78.40
2023-12-09T22:46:35.579Z,78.12
2023-12-09T22:49:01.914Z,78.18
2023-12-09T22:51:28.157Z,79.25
2023-12-09T22:53:54.364Z,79.71
2023-12-09T22:56:20.500Z,78.69
2023-12-09T22:58:46.657Z,79.84
2023-12-09T23:01:12.964Z,81.05
2023-12-09T23:03:39.291Z,80.99
2023-12-09T23:06:05.445Z,81.36
2023-12-09T23:08:31.602Z,82.04
2023-12-09T23:10:57.755Z,82.48
2023-12-09T23:13:23.912Z,81.60
2023-12-09T23:15:50.113Z,81.46
2023-12-09T23:18:16.415Z,81.41
2023-12-09T23:20:42.614Z,81.30
2023-12-09T23:23:08.786Z,79.89
2023-12-09T23:25:34.940Z,79.44
2023-12-09T23:28:01.124Z,78.78
2023-12-09T23:30:27.337Z,79.10
2023-12-09T23:32:53.579Z,78.28
2023-12-09T23:35:19.786Z,78.07
2023-12-09T23:37:45.946Z,77.25
2023-12-09T23:40:12.116Z,77.04
2023-12-09T23:42:38.352Z,77.52
2023-12-09T23:45:04.580Z,76.47
2023-12-09T23:47:30.806Z,76.65
2023-12-09T23:49:56.967Z,76.69
2023-12-09T23:52:23.141Z,75.35
2023-12-09T23:54:49.372Z,75.42
2023-12-09T23:57:15.611Z,75.80
2023-12-09T23:59:41.772Z,74.90
